Time;durP1;ratioP1;P1;durP2;ratioP2;P2;SDS_P1;SDS_P2;PMS_P1;PMS_P2;Temp;Humidity;BMP_temperature;BMP_pressure;BME280_temperature;BME280_humidity;BME280_pressure;Samples;Min_cycle;Max_cycle;Signal;HPM_P1;HPM_P2
2023/08/12 00:00:41;;;;;;;13.23;8.43;;;;;;;14.88;100.00;100991.75;5095127;28;20379;-72
2023/08/12 00:03:06;;;;;;;12.77;8.57;;;;;;;14.85;100.00;100996.44;5095365;28;20024;-72
2023/08/12 00:05:31;;;;;;;19.95;9.43;;;;;;;14.83;100.00;100993.28;5095815;28;20027;-74
2023/08/12 00:07:57;;;;;;;11.07;8.05;;;;;;;14.81;100.00;100995.88;5092951;28;20032;-75
2023/08/12 00:10:23;;;;;;;10.43;8.82;;;;;;;14.78;100.00;100994.78;5092328;28;20036;-74
2023/08/12 00:12:48;;;;;;;12.77;8.82;;;;;;;14.75;100.00;101001.56;5091507;28;20031;-75
2023/08/12 00:15:14;;;;;;;14.43;9.23;;;;;;;14.72;100.00;100998.94;5091362;28;20153;-73
2023/08/12 00:17:41;;;;;;;14.20;9.73;;;;;;;14.68;100.00;101002.00;5091359;28;20453;-73
2023/08/12 00:20:08;;;;;;;16.73;10.82;;;;;;;14.67;100.00;101008.28;5106908;28;20028;-74
2023/08/12 00:22:34;;;;;;;14.20;9.23;;;;;;;14.62;100.00;101003.25;5089987;28;20106;-74
2023/08/12 00:24:59;;;;;;;15.18;9.95;;;;;;;14.58;100.00;101017.00;5109017;28;20111;-73
2023/08/12 00:27:25;;;;;;;16.80;9.85;;;;;;;14.56;100.00;101008.91;5094519;28;20404;-73
2023/08/12 00:29:50;;;;;;;13.77;9.95;;;;;;;14.55;100.00;101006.50;5094293;28;20465;-74
2023/08/12 00:32:15;;;;;;;13.57;9.88;;;;;;;14.53;100.00;101001.25;5092838;28;20016;-73
2023/08/12 00:34:41;;;;;;;14.55;9.55;;;;;;;14.51;100.00;100991.56;5107969;28;20024;-73
2023/08/12 00:37:06;;;;;;;18.25;10.15;;;;;;;14.49;100.00;100985.50;5091481;28;20028;-73
2023/08/12 00:39:31;;;;;;;16.98;11.15;;;;;;;14.45;100.00;100987.81;5092773;28;20028;-73
2023/08/12 00:41:57;;;;;;;16.05;10.77;;;;;;;14.43;100.00;100983.34;5091266;28;20147;-73
2023/08/12 00:44:22;;;;;;;18.85;10.55;;;;;;;14.44;100.00;100984.16;5108344;28;20039;-75
2023/08/12 00:46:48;;;;;;;21.48;11.23;;;;;;;14.35;100.00;100967.03;5110297;28;20054;-73
2023/08/12 00:49:15;;;;;;;21.30;11.40;;;;;;;14.40;100.00;100977.81;5094992;28;20039;-73
2023/08/12 00:51:41;;;;;;;16.17;11.27;;;;;;;14.39;100.00;100967.63;5093707;28;20521;-72
2023/08/12 00:54:08;;;;;;;17.88;11.13;;;;;;;14.36;100.00;100965.75;5094706;28;20051;-72
2023/08/12 00:56:34;;;;;;;15.30;10.73;;;;;;;14.32;100.00;100965.97;5094568;28;20039;-71
2023/08/12 00:59:00;;;;;;;17.13;11.35;;;;;;;14.24;100.00;100967.69;5093330;28;20020;-75
2023/08/12 01:01:25;;;;;;;20.58;11.65;;;;;;;14.19;100.00;100961.84;5109960;28;20073;-75
2023/08/12 01:03:51;;;;;;;14.40;10.35;;;;;;;14.15;100.00;100967.03;5093214;28;20035;-73
2023/08/12 01:06:17;;;;;;;19.10;11.13;;;;;;;14.07;100.00;100966.69;5094408;28;20032;-72
2023/08/12 01:08:42;;;;;;;17.38;11.43;;;;;;;14.02;100.00;100960.84;5094578;28;20028;-72
2023/08/12 01:11:28;;;;;;;24.02;12.13;;;;;;;13.95;100.00;100956.31;5093295;28;20073;-71
2023/08/12 01:14:01;;;;;;;16.27;10.55;;;;;;;13.93;100.00;100962.56;5109931;28;20067;-73
2023/08/12 01:16:30;;;;;;;14.55;9.93;;;;;;;13.90;100.00;100960.69;5094149;28;20063;-72
2023/08/12 01:18:56;;;;;;;14.52;9.82;;;;;;;13.89;100.00;100961.19;5110179;28;20027;-73
2023/08/12 01:21:22;;;;;;;14.65;9.77;;;;;;;13.92;100.00;100960.19;5092707;28;20032;-72
2023/08/12 01:23:48;;;;;;;13.43;10.02;;;;;;;13.96;100.00;100966.50;5109673;28;20032;-73
2023/08/12 01:26:13;;;;;;;11.55;10.05;;;;;;;13.96;100.00;100967.31;5093692;28;20024;-73
2023/08/12 01:28:38;;;;;;;14.57;9.82;;;;;;;13.96;100.00;100958.69;5094239;28;20035;-73
2023/08/12 01:31:12;;;;;;;14.98;9.57;;;;;;;13.98;100.00;100966.81;5094152;28;20474;-73
2023/08/12 01:33:56;;;;;;;13.98;10.02;;;;;;;13.92;100.00;100960.19;5094137;28;20028;-72
2023/08/12 01:36:23;;;;;;;17.55;9.65;;;;;;;13.91;100.00;100965.16;5109462;28;20133;-73
2023/08/12 01:38:51;;;;;;;15.85;10.68;;;;;;;13.90;100.00;100960.69;5093704;28;20032;-73
2023/08/12 01:41:18;;;;;;;16.63;10.93;;;;;;;13.90;100.00;100965.63;5092506;28;20032;-74
2023/08/12 01:43:44;;;;;;;16.98;10.68;;;;;;;13.88;100.00;100960.41;5109518;28;20032;-73
2023/08/12 01:46:10;;;;;;;16.88;10.52;;;;;;;13.81;100.00;100972.31;5094012;28;20023;-74
2023/08/12 01:48:35;;;;;;;17.83;11.07;;;;;;;13.77;100.00;100971.72;5109447;28;20472;-71
2023/08/12 01:51:01;;;;;;;12.77;10.00;;;;;;;13.75;100.00;100976.38;5093664;28;20082;-74
2023/08/12 01:53:26;;;;;;;14.15;10.77;;;;;;;13.73;100.00;100973.22;5093487;28;20032;-72
2023/08/12 01:55:52;;;;;;;13.43;9.82;;;;;;;13.71;100.00;100970.06;5093529;28;20074;-72
2023/08/12 01:58:17;;;;;;;13.80;10.63;;;;;;;13.66;100.00;100970.75;5093633;28;20031;-72
2023/08/12 02:00:43;;;;;;;17.38;10.35;;;;;;;13.60;100.00;100964.13;5109051;28;20041;-73
2023/08/12 02:03:08;;;;;;;15.82;10.60;;;;;;;13.60;100.00;100961.25;5109592;28;20457;-74
2023/08/12 02:05:33;;;;;;;12.40;11.05;;;;;;;13.58;100.00;100966.72;5092761;28;20496;-74
2023/08/12 02:07:59;;;;;;;14.10;10.43;;;;;;;13.55;100.00;100954.94;5091342;28;20049;-73
2023/08/12 02:10:24;;;;;;;13.80;11.13;;;;;;;13.51;100.00;100965.03;5091107;28;20036;-73
2023/08/12 02:12:50;;;;;;;15.18;11.18;;;;;;;13.46;100.00;100955.03;5089984;28;20024;-73
2023/08/12 02:15:15;;;;;;;14.77;10.52;;;;;;;13.40;100.00;100953.34;5106952;28;20031;-74
2023/08/12 02:17:41;;;;;;;13.73;10.70;;;;;;;13.38;100.00;100956.72;5091408;28;20028;-73
2023/08/12 02:20:07;;;;;;;11.45;10.13;;;;;;;13.39;100.00;100951.78;5091945;28;20051;-73
2023/08/12 02:22:32;;;;;;;14.63;10.60;;;;;;;13.43;100.00;100952.34;5094093;28;20362;-73
2023/08/12 02:24:58;;;;;;;17.10;10.82;;;;;;;13.42;100.00;100951.56;5095578;28;20085;-74
2023/08/12 02:27:23;;;;;;;14.25;10.80;;;;;;;13.45;100.00;100953.44;5095768;28;20405;-74
2023/08/12 02:29:48;;;;;;;17.77;10.93;;;;;;;13.46;100.00;100951.34;5095811;28;20150;-74
2023/08/12 02:32:14;;;;;;;15.23;10.85;;;;;;;13.50;100.00;100947.00;5095326;28;20448;-74
2023/08/12 02:34:39;;;;;;;16.75;10.45;;;;;;;13.54;100.00;100952.56;5095165;28;20020;-73
2023/08/12 02:37:04;;;;;;;15.40;11.02;;;;;;;13.54;100.00;100949.69;5095162;28;20081;-74
2023/08/12 02:39:30;;;;;;;13.57;10.32;;;;;;;13.55;100.00;100943.44;5096977;28;20050;-74
2023/08/12 02:41:55;;;;;;;12.93;10.85;;;;;;;13.57;100.00;100942.16;5097306;28;20478;-73
2023/08/12 02:44:21;;;;;;;13.23;10.82;;;;;;;13.54;100.00;100941.84;5095716;28;20492;-72
2023/08/12 02:46:46;;;;;;;17.67;11.60;;;;;;;13.51;100.00;100933.44;5113151;28;20031;-73
2023/08/12 02:49:11;;;;;;;14.50;10.50;;;;;;;13.55;100.00;100943.44;5112887;28;20066;-73
2023/08/12 02:51:37;;;;;;;13.45;11.88;;;;;;;13.52;100.00;100941.59;5096756;28;20370;-72
2023/08/12 02:54:02;;;;;;;14.75;11.38;;;;;;;13.50;100.00;100937.56;5096967;28;20024;-72
2023/08/12 02:56:28;;;;;;;15.50;11.75;;;;;;;13.47;100.00;100942.25;5095642;28;20088;-73
2023/08/12 02:58:53;;;;;;;18.67;12.25;;;;;;;13.51;100.00;100947.81;5112952;28;20070;-74
2023/08/12 03:01:21;;;;;;;16.60;11.38;;;;;;;13.45;100.00;100939.06;5112289;28;20427;-74
2023/08/12 03:03:46;;;;;;;16.60;11.50;;;;;;;13.47;100.00;100941.47;5095655;28;20055;-72
2023/08/12 03:06:11;;;;;;;14.73;11.13;;;;;;;13.43;100.00;100947.41;5096568;28;20124;-72
2023/08/12 03:08:37;;;;;;;16.98;11.50;;;;;;;13.41;100.00;100947.09;5096650;28;20028;-72
2023/08/12 03:11:03;;;;;;;18.85;11.07;;;;;;;13.44;100.00;100953.94;5096888;28;20069;-72
2023/08/12 03:13:28;;;;;;;14.23;11.38;;;;;;;13.41;100.00;100946.31;5096654;28;20077;-74
2023/08/12 03:15:54;;;;;;;14.05;12.05;;;;;;;13.40;100.00;100954.13;5095543;28;20028;-73
2023/08/12 03:18:19;;;;;;;15.13;11.32;;;;;;;13.44;100.00;100954.72;5112607;28;20362;-74
2023/08/12 03:20:45;;;;;;;15.65;11.73;;;;;;;13.43;100.00;100940.88;5096229;28;20032;-73
2023/08/12 03:23:10;;;;;;;17.58;11.38;;;;;;;13.45;100.00;100946.91;5112540;28;20068;-72
2023/08/12 03:25:35;;;;;;;13.65;11.02;;;;;;;13.45;100.00;100953.44;5096444;28;20024;-73
2023/08/12 03:28:01;;;;;;;19.95;11.88;;;;;;;13.49;100.00;100950.38;5096472;28;20016;-72
2023/08/12 03:30:26;;;;;;;13.23;11.20;;;;;;;13.49;100.00;100953.25;5096190;28;20460;-72
2023/08/12 03:32:52;;;;;;;15.15;12.20;;;;;;;13.48;100.00;100952.44;5095198;28;20012;-74
2023/08/12 03:35:18;;;;;;;14.45;10.82;;;;;;;13.49;100.00;100950.38;5096190;28;20016;-72
2023/08/12 03:37:43;;;;;;;14.80;11.20;;;;;;;13.49;100.00;100950.38;5096133;28;20032;-74
2023/08/12 03:40:09;;;;;;;11.57;10.38;;;;;;;13.49;100.00;100950.38;5111724;28;20028;-72
2023/08/12 03:42:34;;;;;;;16.67;11.43;;;;;;;13.50;100.00;100949.84;5111668;28;20380;-72
2023/08/12 03:45:00;;;;;;;13.50;10.88;;;;;;;13.54;100.00;100949.69;5094668;28;20101;-73
2023/08/12 03:47:25;;;;;;;13.65;11.23;;;;;;;13.52;100.00;100949.41;5111787;28;20028;-73
2023/08/12 03:49:51;;;;;;;13.48;10.60;;;;;;;13.51;100.00;100944.94;5094487;28;20557;-74
2023/08/12 03:52:16;;;;;;;13.88;11.00;;;;;;;13.57;100.00;100950.78;5096053;28;20502;-73
2023/08/12 03:54:41;;;;;;;18.17;11.10;;;;;;;13.53;100.00;100948.13;5094735;28;20431;-73
2023/08/12 03:57:07;;;;;;;15.07;11.73;;;;;;;13.52;100.00;100955.16;5094437;28;20024;-73
2023/08/12 03:59:32;;;;;;;13.68;11.02;;;;;;;13.50;100.00;100949.84;5095775;28;20050;-72
2023/08/12 04:01:57;;;;;;;12.77;11.25;;;;;;;13.51;100.00;100953.56;5095373;28;20047;-72
2023/08/12 04:04:23;;;;;;;12.15;10.80;;;;;;;13.49;100.00;100950.38;5095689;28;20020;-71
2023/08/12 04:06:51;;;;;;;13.45;10.85;;;;;;;13.49;100.00;100956.88;5095514;28;20402;-71
2023/08/12 04:09:17;;;;;;;12.32;10.95;;;;;;;13.52;100.00;100953.06;5095887;28;20329;-73
2023/08/12 04:11:43;;;;;;;12.35;10.18;;;;;;;13.52;100.00;100950.19;5095477;28;20052;-72
2023/08/12 04:14:08;;;;;;;14.48;10.57;;;;;;;13.54;100.00;100946.84;5111254;28;20070;-73
2023/08/12 04:16:34;;;;;;;10.75;9.55;;;;;;;13.66;100.00;100950.66;5095363;28;20036;-73
2023/08/12 04:18:59;;;;;;;17.92;9.73;;;;;;;13.70;100.00;100948.34;5095314;28;20520;-72
2023/08/12 04:21:24;;;;;;;12.63;9.88;;;;;;;13.81;100.00;100949.31;5095240;28;20032;-72
2023/08/12 04:23:50;;;;;;;14.57;10.27;;;;;;;13.92;100.00;100948.69;5095255;28;20111;-73
2023/08/12 04:26:15;;;;;;;13.65;10.27;;;;;;;14.02;100.00;100949.34;5094233;28;20066;-74
2023/08/12 04:28:41;;;;;;;14.32;9.93;;;;;;;14.07;100.00;100949.44;5093769;28;20024;-74
2023/08/12 04:31:09;;;;;;;12.63;9.18;;;;;;;14.09;100.00;100938.22;5095500;28;20085;-73
2023/08/12 04:33:35;;;;;;;21.05;11.25;;;;;;;14.12;100.00;100939.31;5110281;28;20085;-74
2023/08/12 04:36:00;;;;;;;14.45;10.80;;;;;;;14.11;100.00;100931.97;5094981;28;20055;-73
2023/08/12 04:38:26;;;;;;;12.73;9.52;;;;;;;14.08;100.00;100928.03;5094846;28;20392;-73
2023/08/12 04:40:53;;;;;;;12.25;9.10;;;;;;;14.11;100.00;100932.78;5094758;28;20020;-72
2023/08/12 04:43:19;;;;;;;12.50;9.90;;;;;;;14.12;100.00;100933.56;5094697;28;20030;-73
2023/08/12 04:45:46;;;;;;;13.13;9.40;;;;;;;14.17;100.00;100927.88;5093187;28;20028;-72
2023/08/12 04:48:11;;;;;;;14.13;9.80;;;;;;;14.22;100.00;100926.38;5093507;28;20032;-72
2023/08/12 04:50:38;;;;;;;13.43;10.63;;;;;;;14.19;100.00;100922.41;5094438;28;20024;-72
2023/08/12 04:53:05;;;;;;;11.02;9.30;;;;;;;14.20;100.00;100926.88;5093046;28;20542;-73
2023/08/12 04:55:32;;;;;;;11.77;9.60;;;;;;;14.25;100.00;100929.03;5092919;28;20353;-72
2023/08/12 04:57:58;;;;;;;14.35;9.60;;;;;;;14.35;100.00;100941.97;5094579;28;20097;-74
2023/08/12 05:00:24;;;;;;;13.20;10.73;;;;;;;14.38;100.00;100938.06;5109733;28;20028;-73
2023/08/12 05:02:51;;;;;;;14.82;10.60;;;;;;;14.46;100.00;100937.63;5094177;28;20044;-73
2023/08/12 05:05:17;;;;;;;11.40;10.00;;;;;;;14.55;100.00;100937.47;5094451;28;20048;-73
2023/08/12 05:07:44;;;;;;;13.55;10.10;;;;;;;14.63;100.00;100942.31;5094674;28;20020;-72
2023/08/12 05:10:09;;;;;;;15.40;10.02;;;;;;;14.76;100.00;100944.81;5094619;28;20024;-72
2023/08/12 05:12:36;;;;;;;18.60;9.55;;;;;;;14.87;100.00;100944.94;5094224;28;20024;-73
2023/08/12 05:15:02;;;;;;;15.05;10.55;;;;;;;14.92;100.00;100940.53;5094433;28;20020;-72
2023/08/12 05:17:30;;;;;;;11.38;9.40;;;;;;;15.00;100.00;100939.56;5110022;28;20020;-72
2023/08/12 05:19:56;;;;;;;15.15;9.30;;;;;;;15.05;100.00;100930.19;5094667;28;20024;-71
2023/08/12 05:22:23;;;;;;;14.85;9.45;;;;;;;15.13;100.00;100930.53;5091361;28;20028;-73
2023/08/12 05:24:49;;;;;;;13.73;9.55;;;;;;;15.24;100.00;100922.78;5094329;28;20020;-72
2023/08/12 05:27:16;;;;;;;14.43;8.80;;;;;;;15.24;100.00;100908.38;5094360;28;20051;-72
2023/08/12 05:29:42;;;;;;;10.40;8.25;;;;;;;15.43;100.00;100920.31;5092739;28;20024;-74
2023/08/12 05:32:09;;;;;;;15.95;8.10;;;;;;;15.56;100.00;100905.50;5092667;28;20028;-72
2023/08/12 05:34:34;;;;;;;9.63;8.13;;;;;;;15.68;100.00;100910.84;5094920;28;20099;-75
2023/08/12 05:37:00;;;;;;;10.13;7.70;;;;;;;15.75;100.00;100914.56;5094668;28;20055;-73
2023/08/12 05:39:26;;;;;;;14.30;7.80;;;;;;;15.89;100.00;100910.69;5094022;28;20036;-74
2023/08/12 05:41:54;;;;;;;11.57;6.82;;;;;;;15.98;100.00;100896.84;5093682;28;20107;-72
2023/08/12 05:44:19;;;;;;;10.63;7.63;;;;;;;16.09;100.00;100896.91;5093825;28;20055;-73
2023/08/12 05:46:46;;;;;;;12.35;6.53;;;;;;;16.19;100.00;100905.34;5093735;28;20066;-72
2023/08/12 05:49:12;;;;;;;9.35;6.35;;;;;;;16.25;100.00;100894.63;5093537;28;20020;-73
2023/08/12 05:51:41;;;;;;;9.57;6.90;;;;;;;16.39;100.00;100890.75;5092299;28;20030;-74
2023/08/12 05:54:12;;;;;;;8.93;6.32;;;;;;;16.44;100.00;100892.84;5092428;28;20073;-75
2023/08/12 05:56:37;;;;;;;13.53;6.63;;;;;;;16.67;100.00;100896.59;5091725;28;20115;-74
2023/08/12 05:59:05;;;;;;;10.82;6.03;;;;;;;16.90;100.00;100893.22;5075197;28;20486;-75
2023/08/12 06:01:32;;;;;;;8.05;5.38;;;;;;;17.13;100.00;100878.81;5075072;28;20118;-75
2023/08/12 06:03:58;;;;;;;5.80;5.13;;;;;;;17.35;100.00;100876.69;5080838;28;20032;-75
2023/08/12 06:06:24;;;;;;;6.07;5.30;;;;;;;17.62;100.00;100877.22;5071021;28;20127;-74
2023/08/12 06:08:50;;;;;;;8.20;5.30;;;;;;;17.91;100.00;100881.63;5089050;28;20104;-75
2023/08/12 06:11:16;;;;;;;5.43;4.47;;;;;;;18.23;100.00;100871.22;5071346;28;20025;-76
2023/08/12 06:13:41;;;;;;;6.47;4.88;;;;;;;18.56;100.00;100870.31;5073257;28;20027;-75
2023/08/12 06:16:06;;;;;;;4.35;3.90;;;;;;;18.88;100.00;100862.72;5073731;28;20020;-75
2023/08/12 06:18:33;;;;;;;7.38;4.88;;;;;;;19.26;100.00;100866.66;5073204;28;20029;-76
2023/08/12 06:20:58;;;;;;;6.57;4.38;;;;;;;19.63;100.00;100862.34;5072112;28;20031;-77
2023/08/12 06:23:24;;;;;;;6.45;4.43;;;;;;;19.87;100.00;100857.31;5088931;28;20029;-74
2023/08/12 06:25:50;;;;;;;6.90;4.72;;;;;;;19.99;100.00;100852.22;5073297;28;20343;-75
2023/08/12 06:28:17;;;;;;;9.25;4.15;;;;;;;20.09;100.00;100844.69;5072519;28;20383;-76
2023/08/12 06:30:48;;;;;;;6.63;4.40;;;;;;;20.25;100.00;100846.56;5071824;28;20025;-74
2023/08/12 06:33:15;;;;;;;7.13;3.93;;;;;;;20.40;100.00;100849.00;5073188;28;20115;-75
2023/08/12 06:35:42;;;;;;;8.25;4.07;;;;;;;20.74;100.00;100844.31;5071760;28;20040;-78
2023/08/12 06:38:11;;;;;;;6.97;3.08;;;;;;;21.57;100.00;100836.31;5089142;28;20036;-77
2023/08/12 06:40:43;;;;;;;7.15;3.33;;;;;;;22.97;100.00;100836.22;5073547;28;20070;-76
2023/08/12 06:43:10;;;;;;;7.82;3.42;;;;;;;24.47;100.00;100832.84;5072275;28;20143;-75
2023/08/12 06:45:37;;;;;;;7.32;3.30;;;;;;;25.88;100.00;100833.41;5089012;28;20024;-79
2023/08/12 06:48:03;;;;;;;6.63;3.17;;;;;;;27.12;100.00;100825.06;5084834;28;20035;-78
2023/08/12 06:50:28;;;;;;;7.90;2.80;;;;;;;28.48;100.00;100836.91;5093340;28;20051;-78
2023/08/12 06:52:54;;;;;;;5.05;2.80;;;;;;;29.68;90.28;100843.13;5084823;28;20185;-83
2023/08/12 06:55:20;;;;;;;4.50;2.33;;;;;;;30.40;77.89;100846.50;5072923;28;20024;-85
2023/08/12 06:57:46;;;;;;;7.93;3.05;;;;;;;31.20;67.98;100848.88;5097437;28;20020;-85
2023/08/12 07:00:20;;;;;;;6.60;3.00;;;;;;;31.70;59.38;100839.16;5073094;28;20031;-86
2023/08/12 07:02:45;;;;;;;4.80;3.08;;;;;;;32.34;62.15;100851.03;5072628;28;20135;-82
2023/08/12 07:05:11;;;;;;;9.02;3.10;;;;;;;32.75;60.07;100843.50;5072874;28;20044;-82
2023/08/12 07:07:37;;;;;;;3.70;2.60;;;;;;;33.29;49.32;100849.28;5073944;28;20028;-83
2023/08/12 07:10:04;;;;;;;5.63;2.58;;;;;;;33.81;48.16;100854.88;5076261;28;20024;-81
2023/08/12 07:12:29;;;;;;;3.78;2.70;;;;;;;34.16;50.56;100851.84;5075646;28;20023;-83
2023/08/12 07:14:57;;;;;;;8.73;3.03;;;;;;;34.69;42.91;100849.88;5076201;28;20020;-82
2023/08/12 07:17:23;;;;;;;3.85;2.55;;;;;;;34.52;39.18;100856.22;5073862;28;20393;-85
2023/08/12 07:19:50;;;;;;;3.90;2.67;;;;;;;34.26;42.11;100854.66;5091781;28;20491;-86
2023/08/12 07:22:19;;;;;;;4.80;2.70;;;;;;;34.30;44.79;100846.00;5076560;28;20025;-85
2023/08/12 07:24:44;;;;;;;4.50;2.80;;;;;;;33.65;42.10;100853.03;5076407;28;20067;-81
2023/08/12 07:27:11;;;;;;;5.75;2.25;;;;;;;33.67;43.93;100862.09;5075046;28;20055;-86
2023/08/12 07:29:39;;;;;;;5.45;2.40;;;;;;;33.73;43.23;100850.59;5074120;28;20465;-84
2023/08/12 07:32:05;;;;;;;6.28;2.60;;;;;;;33.68;43.10;100855.50;5075465;28;20125;-78
2023/08/12 07:34:32;;;;;;;4.75;2.53;;;;;;;33.34;43.39;100850.31;5076078;28;20021;-79
2023/08/12 07:36:58;;;;;;;2.22;2.03;;;;;;;32.86;45.59;100842.75;5074949;28;20069;-79
2023/08/12 07:39:24;;;;;;;6.43;2.58;;;;;;;32.82;46.01;100845.47;5076295;28;20063;-83
2023/08/12 07:41:50;;;;;;;3.53;2.42;;;;;;;32.90;44.64;100837.09;5074186;28;20029;-80
2023/08/12 07:44:17;;;;;;;2.88;2.15;;;;;;;32.95;44.78;100838.91;5076027;28;20035;-81
2023/08/12 07:46:44;;;;;;;9.70;3.47;;;;;;;33.20;43.96;100825.72;5075765;28;20350;-81
2023/08/12 07:49:11;;;;;;;11.68;2.63;;;;;;;33.32;43.82;100826.50;5076137;28;20035;-82
2023/08/12 07:51:37;;;;;;;2.92;2.10;;;;;;;34.10;44.22;100824.75;5074447;28;20151;-82
2023/08/12 07:54:03;;;;;;;3.95;2.40;;;;;;;34.48;40.01;100837.41;5074598;28;20020;-80
2023/08/12 07:56:30;;;;;;;8.40;2.80;;;;;;;35.03;39.38;100835.44;5075657;28;20031;-79
2023/08/12 07:58:59;;;;;;;3.63;2.15;;;;;;;35.07;38.07;100827.56;5075925;28;20024;-81
2023/08/12 08:01:26;;;;;;;2.10;1.90;;;;;;;35.47;36.83;100820.13;5075539;28;20052;-81
2023/08/12 08:03:52;;;;;;;6.38;2.47;;;;;;;35.49;37.95;100820.25;5075235;28;20036;-81
2023/08/12 08:06:17;;;;;;;5.35;2.25;;;;;;;35.77;37.35;100814.31;5075428;28;20021;-82
2023/08/12 08:08:43;;;;;;;5.35;2.60;;;;;;;35.85;36.53;100815.50;5075876;28;20384;-82
2023/08/12 08:11:09;;;;;;;4.75;1.95;;;;;;;35.80;34.91;100801.84;5090785;28;20032;-82
2023/08/12 08:13:36;;;;;;;6.88;2.17;;;;;;;36.03;34.63;100810.56;5075432;28;20024;-86
2023/08/12 08:16:07;;;;;;;2.95;2.28;;;;;;;35.89;34.36;100817.97;5075828;28;20024;-86
2023/08/12 08:18:36;;;;;;;3.35;2.10;;;;;;;35.54;35.87;100813.13;5075399;28;20095;-76
2023/08/12 08:21:02;;;;;;;4.78;1.80;;;;;;;35.67;35.25;100817.53;5074604;28;20133;-78
2023/08/12 08:23:29;;;;;;;8.00;2.45;;;;;;;35.50;34.85;100806.91;5057234;28;20066;-74
2023/08/12 08:25:56;;;;;;;2.60;1.80;;;;;;;35.63;35.13;100805.41;5063987;28;20032;-74
2023/08/12 08:28:23;;;;;;;3.90;1.88;;;;;;;35.75;35.03;100814.97;5057336;28;20028;-75
2023/08/12 08:30:48;;;;;;;7.00;2.08;;;;;;;35.85;36.13;100809.56;5074984;28;20031;-77
2023/08/12 08:33:15;;;;;;;3.67;2.17;;;;;;;35.95;35.86;100812.31;5075043;28;20108;-78
2023/08/12 08:35:40;;;;;;;2.42;1.65;;;;;;;35.76;35.00;100806.81;5074514;28;20544;-82
2023/08/12 08:38:05;;;;;;;3.97;2.10;;;;;;;35.73;35.14;100800.00;5073605;28;20108;-78
2023/08/12 08:40:31;;;;;;;5.20;2.05;;;;;;;35.88;35.57;100804.50;5074430;28;20024;-77
2023/08/12 08:43:03;;;;;;;2.53;1.95;;;;;;;35.94;34.78;100793.69;5061888;28;20074;-76
2023/08/12 08:45:33;;;;;;;4.55;1.80;;;;;;;35.99;35.34;100801.41;5048690;28;20021;-75
2023/08/12 08:48:02;;;;;;;4.20;2.17;;;;;;;35.98;33.88;100796.88;5073329;28;20147;-76
2023/08/12 08:50:30;;;;;;;4.32;2.05;;;;;;;35.81;32.73;100802.63;5071198;28;20036;-78
2023/08/12 08:52:56;;;;;;;2.00;1.77;;;;;;;35.34;34.50;100796.34;5072286;28;20020;-76
2023/08/12 08:55:22;;;;;;;4.43;2.05;;;;;;;35.17;35.47;100792.47;5054473;28;20024;-79
2023/08/12 08:57:48;;;;;;;4.70;1.95;;;;;;;35.15;34.65;100782.69;5070914;28;20020;-77
2023/08/12 09:00:15;;;;;;;6.13;2.30;;;;;;;35.15;34.50;100791.59;5053660;28;20034;-80
2023/08/12 09:02:41;;;;;;;3.22;2.10;;;;;;;35.16;35.88;100793.13;5071848;28;20044;-78
2023/08/12 09:05:07;;;;;;;4.07;2.13;;;;;;;35.00;35.17;100792.19;5072099;28;20020;-78
2023/08/12 09:07:33;;;;;;;3.92;2.00;;;;;;;34.95;35.32;100797.16;5072104;28;20490;-78
2023/08/12 09:10:00;;;;;;;3.45;2.00;;;;;;;34.78;34.58;100797.63;5070620;28;20020;-77
2023/08/12 09:12:26;;;;;;;4.38;1.80;;;;;;;34.69;34.50;100793.44;5071794;28;20428;-76
2023/08/12 09:14:51;;;;;;;6.07;2.15;;;;;;;34.60;33.74;100803.28;5071876;28;20032;-76
2023/08/12 09:17:16;;;;;;;10.23;2.00;;;;;;;34.40;33.90;100790.22;5071870;28;20023;-78
2023/08/12 09:19:42;;;;;;;2.35;1.65;;;;;;;34.10;34.40;100809.13;5074023;28;20028;-77
2023/08/12 09:22:11;;;;;;;4.03;1.88;;;;;;;33.62;35.48;100789.09;5073602;28;20382;-76
2023/08/12 09:24:36;;;;;;;7.40;2.17;;;;;;;33.44;36.63;100788.72;5074114;28;20020;-77
2023/08/12 09:27:02;;;;;;;3.10;1.75;;;;;;;33.44;36.92;100785.75;5073868;28;20427;-77
2023/08/12 09:29:32;;;;;;;6.07;1.77;;;;;;;33.46;36.75;100783.72;5073661;28;20480;-77
2023/08/12 09:32:13;;;;;;;4.40;1.77;;;;;;;33.53;36.74;100773.00;5073073;28;20020;-77
2023/08/12 09:34:51;;;;;;;3.53;1.80;;;;;;;33.52;36.85;100771.47;5072272;28;20077;-78
2023/08/12 09:37:17;;;;;;;2.90;1.73;;;;;;;33.33;36.92;100759.88;5073867;28;20020;-75
2023/08/12 09:39:43;;;;;;;11.85;2.30;;;;;;;33.45;37.87;100769.53;5073959;28;20111;-75
2023/08/12 09:42:09;;;;;;;3.88;1.85;;;;;;;33.43;37.66;100761.28;5072047;28;20099;-76
2023/08/12 09:44:36;;;;;;;6.32;1.85;;;;;;;33.31;37.59;100775.34;5072683;28;20074;-74
2023/08/12 09:47:03;;;;;;;2.13;1.88;;;;;;;33.25;37.13;100762.31;5073575;28;20032;-77
2023/08/12 09:49:28;;;;;;;5.82;2.00;;;;;;;33.02;38.75;100757.16;5073881;28;20422;-76
2023/08/12 09:51:54;;;;;;;4.00;2.10;;;;;;;32.96;39.34;100765.66;5073735;28;20449;-77
2023/08/12 09:54:20;;;;;;;4.72;1.85;;;;;;;32.88;38.45;100756.25;5072323;28;20025;-76
2023/08/12 09:56:48;;;;;;;2.47;2.13;;;;;;;32.66;39.73;100752.56;5073562;28;20037;-76
2023/08/12 09:59:22;;;;;;;2.90;1.45;;;;;;;32.61;40.74;100753.72;5072110;28;20044;-75
2023/08/12 10:01:50;;;;;;;2.88;1.75;;;;;;;32.45;40.48;100747.50;5072969;28;20127;-77
2023/08/12 10:04:18;;;;;;;3.53;1.98;;;;;;;32.11;40.63;100748.13;5072968;28;20031;-78
2023/08/12 10:06:43;;;;;;;6.45;1.70;;;;;;;31.84;42.79;100745.56;5055571;28;20020;-77
2023/08/12 10:09:11;;;;;;;8.27;2.20;;;;;;;31.81;44.20;100749.78;5073059;28;20024;-78
2023/08/12 10:11:36;;;;;;;5.05;1.90;;;;;;;31.75;43.87;100738.31;5073240;28;20476;-76
2023/08/12 10:14:03;;;;;;;6.20;1.73;;;;;;;31.65;42.42;100737.56;5072012;28;20059;-75
2023/08/12 10:16:29;;;;;;;3.03;1.85;;;;;;;31.53;45.80;100733.78;5073171;28;20051;-76
2023/08/12 10:18:55;;;;;;;2.75;1.60;;;;;;;31.48;45.41;100731.94;5055217;28;20028;-77
2023/08/12 10:21:22;;;;;;;3.10;1.67;;;;;;;31.34;45.07;100730.97;5072139;28;20035;-80
2023/08/12 10:23:48;;;;;;;5.20;2.03;;;;;;;31.27;46.55;100717.94;5073026;28;20024;-77
2023/08/12 10:26:14;;;;;;;6.32;2.83;;;;;;;31.13;45.83;100730.88;5055145;28;20062;-78
2023/08/12 10:28:39;;;;;;;3.85;1.88;;;;;;;30.93;46.99;100722.13;5071962;28;20059;-77
2023/08/12 10:31:06;;;;;;;4.55;1.80;;;;;;;30.80;46.96;100724.84;5071875;28;20028;-77
2023/08/12 10:33:38;;;;;;;1.70;1.52;;;;;;;30.69;48.97;100719.59;5071855;28;20031;-78
2023/08/12 10:36:05;;;;;;;1.92;1.63;;;;;;;30.56;50.62;100718.66;5073087;28;20376;-78
2023/08/12 10:38:31;;;;;;;2.72;1.50;;;;;;;30.38;50.83;100711.41;5072987;28;20132;-78
2023/08/12 10:41:16;;;;;;;3.03;1.80;;;;;;;30.27;50.35;100703.22;5071930;28;20025;-78
2023/08/12 10:43:54;;;;;;;4.97;1.90;;;;;;;30.20;53.10;100698.28;5076034;28;20070;-77
2023/08/12 10:46:28;;;;;;;3.03;1.80;;;;;;;30.07;53.38;100696.53;5076881;28;20031;-78
2023/08/12 10:49:00;;;;;;;4.93;1.70;;;;;;;29.87;52.23;100688.38;5075506;28;20093;-78
2023/08/12 10:51:46;;;;;;;3.63;1.67;;;;;;;29.63;55.31;100682.16;5076865;28;20024;-79
2023/08/12 10:54:23;;;;;;;2.47;1.67;;;;;;;29.43;58.04;100673.91;5077075;28;20112;-79
2023/08/12 10:57:10;;;;;;;5.03;1.98;;;;;;;29.26;57.51;100668.94;5076849;28;20020;-78
2023/08/12 10:59:45;;;;;;;3.22;1.52;;;;;;;29.11;59.73;100678.03;5076685;28;20480;-79
2023/08/12 11:02:20;;;;;;;3.55;1.75;;;;;;;28.93;60.51;100674.41;5076636;28;20047;-77
2023/08/12 11:04:54;;;;;;;3.67;1.88;;;;;;;28.88;64.80;100667.41;5076878;28;20055;-78
2023/08/12 11:07:21;;;;;;;4.50;1.80;;;;;;;28.83;63.36;100667.72;5076673;28;20051;-78
2023/08/12 11:09:52;;;;;;;5.85;1.73;;;;;;;28.70;65.51;100671.84;5076830;28;20035;-78
2023/08/12 11:12:18;;;;;;;1.75;1.48;;;;;;;28.51;66.50;100668.03;5075466;28;20104;-78